sensor_id;sensor_type;location;lat;lon;timestamp;temperature;humidity
41838;DHT22;27511;52.042;5.178;2023-12-04T00:01:47;4.80;99.90
41838;DHT22;27511;52.042;5.178;2023-12-04T00:04:13;4.80;99.90
41838;DHT22;27511;52.042;5.178;2023-12-04T00:06:40;4.90;99.90
41838;DHT22;27511;52.042;5.178;2023-12-04T00:09:05;4.90;99.90
41838;DHT22;27511;52.042;5.178;2023-12-04T00:11:31;5.00;99.90
41838;DHT22;27511;52.042;5.178;2023-12-04T00:13:58;5.10;99.90
41838;DHT22;27511;52.042;5.178;2023-12-04T00:16:23;4.90;99.90
41838;DHT22;27511;52.042;5.178;2023-12-04T00:18:49;5.00;99.90
41838;DHT22;27511;52.042;5.178;2023-12-04T00:21:14;5.00;99.90
41838;DHT22;27511;52.042;5.178;2023-12-04T00:23:40;5.00;99.90
41838;DHT22;27511;52.042;5.178;2023-12-04T00:26:06;5.00;99.90
41838;DHT22;27511;52.042;5.178;2023-12-04T00:28:31;5.00;99.90
41838;DHT22;27511;52.042;5.178;2023-12-04T00:30:57;5.00;99.90
41838;DHT22;27511;52.042;5.178;2023-12-04T00:33:23;5.00;99.90
41838;DHT22;27511;52.042;5.178;2023-12-04T00:35:48;5.00;99.90
41838;DHT22;27511;52.042;5.178;2023-12-04T00:38:14;5.10;99.90
41838;DHT22;27511;52.042;5.178;2023-12-04T00:40:39;5.10;99.90
41838;DHT22;27511;52.042;5.178;2023-12-04T00:43:05;5.10;99.90
41838;DHT22;27511;52.042;5.178;2023-12-04T00:45:31;5.10;99.90
41838;DHT22;27511;52.042;5.178;2023-12-04T00:47:56;5.00;99.90
41838;DHT22;27511;52.042;5.178;2023-12-04T00:50:22;5.10;99.90
41838;DHT22;27511;52.042;5.178;2023-12-04T00:52:48;5.10;99.90
41838;DHT22;27511;52.042;5.178;2023-12-04T00:55:13;5.20;99.90
41838;DHT22;27511;52.042;5.178;2023-12-04T00:57:39;5.10;99.90
41838;DHT22;27511;52.042;5.178;2023-12-04T01:00:05;5.10;99.90
41838;DHT22;27511;52.042;5.178;2023-12-04T01:02:31;5.20;99.90
41838;DHT22;27511;52.042;5.178;2023-12-04T01:04:56;5.10;99.90
41838;DHT22;27511;52.042;5.178;2023-12-04T01:07:22;5.20;99.90
41838;DHT22;27511;52.042;5.178;2023-12-04T01:09:47;5.00;99.90
41838;DHT22;27511;52.042;5.178;2023-12-04T01:12:13;5.10;99.90
41838;DHT22;27511;52.042;5.178;2023-12-04T01:14:39;5.10;99.90
41838;DHT22;27511;52.042;5.178;2023-12-04T01:17:04;5.10;99.90
41838;DHT22;27511;52.042;5.178;2023-12-04T01:19:31;5.10;99.90
41838;DHT22;27511;52.042;5.178;2023-12-04T01:21:57;5.00;99.90
41838;DHT22;27511;52.042;5.178;2023-12-04T01:24:23;5.10;99.90
41838;DHT22;27511;52.042;5.178;2023-12-04T01:26:48;5.10;99.90
41838;DHT22;27511;52.042;5.178;2023-12-04T01:29:14;5.20;99.90
41838;DHT22;27511;52.042;5.178;2023-12-04T01:31:39;5.10;99.90
41838;DHT22;27511;52.042;5.178;2023-12-04T01:34:05;5.10;99.90
41838;DHT22;27511;52.042;5.178;2023-12-04T01:36:31;5.00;99.90
41838;DHT22;27511;52.042;5.178;2023-12-04T01:38:56;5.00;99.90
41838;DHT22;27511;52.042;5.178;2023-12-04T01:41:22;5.10;99.90
41838;DHT22;27511;52.042;5.178;2023-12-04T01:43:47;4.90;99.90
41838;DHT22;27511;52.042;5.178;2023-12-04T01:46:15;4.90;99.90
41838;DHT22;27511;52.042;5.178;2023-12-04T01:48:42;5.00;99.90
41838;DHT22;27511;52.042;5.178;2023-12-04T01:51:10;5.00;99.90
41838;DHT22;27511;52.042;5.178;2023-12-04T01:53:38;5.00;99.90
41838;DHT22;27511;52.042;5.178;2023-12-04T01:56:05;5.00;99.90
41838;DHT22;27511;52.042;5.178;2023-12-04T01:58:31;5.00;99.90
41838;DHT22;27511;52.042;5.178;2023-12-04T02:00:57;5.00;99.90
41838;DHT22;27511;52.042;5.178;2023-12-04T02:03:23;4.90;99.90
41838;DHT22;27511;52.042;5.178;2023-12-04T02:05:50;4.80;99.90
41838;DHT22;27511;52.042;5.178;2023-12-04T02:08:16;4.90;99.90
41838;DHT22;27511;52.042;5.178;2023-12-04T02:10:42;4.90;99.90
41838;DHT22;27511;52.042;5.178;2023-12-04T02:13:08;4.90;99.90
41838;DHT22;27511;52.042;5.178;2023-12-04T02:15:33;5.00;99.90
41838;DHT22;27511;52.042;5.178;2023-12-04T02:18:00;5.00;99.90
41838;DHT22;27511;52.042;5.178;2023-12-04T02:20:36;5.00;99.90
41838;DHT22;27511;52.042;5.178;2023-12-04T02:23:02;5.00;99.90
41838;DHT22;27511;52.042;5.178;2023-12-04T02:25:29;5.00;99.90
41838;DHT22;27511;52.042;5.178;2023-12-04T02:27:56;5.00;99.90
41838;DHT22;27511;52.042;5.178;2023-12-04T02:30:24;5.00;99.90
41838;DHT22;27511;52.042;5.178;2023-12-04T02:32:52;5.10;99.90
41838;DHT22;27511;52.042;5.178;2023-12-04T02:35:23;5.10;99.90
41838;DHT22;27511;52.042;5.178;2023-12-04T02:37:50;5.10;99.90
41838;DHT22;27511;52.042;5.178;2023-12-04T02:40:16;5.20;99.90
41838;DHT22;27511;52.042;5.178;2023-12-04T02:42:42;5.00;99.90
41838;DHT22;27511;52.042;5.178;2023-12-04T02:45:08;5.00;99.90
41838;DHT22;27511;52.042;5.178;2023-12-04T02:47:33;5.10;99.90
41838;DHT22;27511;52.042;5.178;2023-12-04T02:49:59;5.10;99.90
41838;DHT22;27511;52.042;5.178;2023-12-04T02:52:25;5.10;99.90
41838;DHT22;27511;52.042;5.178;2023-12-04T02:54:50;5.00;99.90
41838;DHT22;27511;52.042;5.178;2023-12-04T02:57:16;5.10;99.90
41838;DHT22;27511;52.042;5.178;2023-12-04T02:59:41;5.20;99.90
41838;DHT22;27511;52.042;5.178;2023-12-04T03:02:07;5.20;99.90
41838;DHT22;27511;52.042;5.178;2023-12-04T03:04:34;5.20;99.90
41838;DHT22;27511;52.042;5.178;2023-12-04T03:07:00;5.10;99.90
41838;DHT22;27511;52.042;5.178;2023-12-04T03:09:25;5.20;99.90
41838;DHT22;27511;52.042;5.178;2023-12-04T03:11:51;5.30;99.90
41838;DHT22;27511;52.042;5.178;2023-12-04T03:14:16;5.30;99.90
41838;DHT22;27511;52.042;5.178;2023-12-04T03:16:42;5.20;99.90
41838;DHT22;27511;52.042;5.178;2023-12-04T03:19:07;5.20;99.90
41838;DHT22;27511;52.042;5.178;2023-12-04T03:21:33;5.20;99.90
41838;DHT22;27511;52.042;5.178;2023-12-04T03:23:58;5.10;99.90
41838;DHT22;27511;52.042;5.178;2023-12-04T03:26:24;5.20;99.90
41838;DHT22;27511;52.042;5.178;2023-12-04T03:28:50;5.10;99.90
41838;DHT22;27511;52.042;5.178;2023-12-04T03:31:15;5.10;99.90
41838;DHT22;27511;52.042;5.178;2023-12-04T03:33:41;5.10;99.90
41838;DHT22;27511;52.042;5.178;2023-12-04T03:36:07;5.20;99.90
41838;DHT22;27511;52.042;5.178;2023-12-04T03:38:32;5.20;99.90
41838;DHT22;27511;52.042;5.178;2023-12-04T03:40:58;5.20;99.90
41838;DHT22;27511;52.042;5.178;2023-12-04T03:43:23;5.20;99.90
41838;DHT22;27511;52.042;5.178;2023-12-04T03:45:49;5.10;99.90
41838;DHT22;27511;52.042;5.178;2023-12-04T03:48:15;5.10;99.90
41838;DHT22;27511;52.042;5.178;2023-12-04T03:50:40;5.00;99.90
41838;DHT22;27511;52.042;5.178;2023-12-04T03:53:06;5.00;99.90
41838;DHT22;27511;52.042;5.178;2023-12-04T03:55:31;5.00;99.90
41838;DHT22;27511;52.042;5.178;2023-12-04T03:57:57;5.00;99.90
41838;DHT22;27511;52.042;5.178;2023-12-04T04:00:23;4.80;99.90
41838;DHT22;27511;52.042;5.178;2023-12-04T04:02:49;4.90;99.90
41838;DHT22;27511;52.042;5.178;2023-12-04T04:05:15;4.90;99.90
41838;DHT22;27511;52.042;5.178;2023-12-04T04:07:40;4.80;99.90
41838;DHT22;27511;52.042;5.178;2023-12-04T04:10:07;4.80;99.90
41838;DHT22;27511;52.042;5.178;2023-12-04T04:12:33;4.80;99.90
41838;DHT22;27511;52.042;5.178;2023-12-04T04:14:58;4.80;99.90
41838;DHT22;27511;52.042;5.178;2023-12-04T04:17:24;4.90;99.90
41838;DHT22;27511;52.042;5.178;2023-12-04T04:19:53;4.90;99.90
41838;DHT22;27511;52.042;5.178;2023-12-04T04:22:19;4.90;99.90
41838;DHT22;27511;52.042;5.178;2023-12-04T04:24:45;4.90;99.90
41838;DHT22;27511;52.042;5.178;2023-12-04T04:27:10;5.00;99.90
41838;DHT22;27511;52.042;5.178;2023-12-04T04:29:36;4.90;99.90
41838;DHT22;27511;52.042;5.178;2023-12-04T04:32:01;4.90;99.90
41838;DHT22;27511;52.042;5.178;2023-12-04T04:34:27;4.90;99.90
41838;DHT22;27511;52.042;5.178;2023-12-04T04:36:53;4.90;99.90
41838;DHT22;27511;52.042;5.178;2023-12-04T04:39:18;4.90;99.90
41838;DHT22;27511;52.042;5.178;2023-12-04T04:41:44;4.90;99.90
41838;DHT22;27511;52.042;5.178;2023-12-04T04:44:10;4.90;99.90
41838;DHT22;27511;52.042;5.178;2023-12-04T04:46:36;4.90;99.90
41838;DHT22;27511;52.042;5.178;2023-12-04T04:49:01;4.80;99.90
41838;DHT22;27511;52.042;5.178;2023-12-04T04:51:28;4.90;99.90
41838;DHT22;27511;52.042;5.178;2023-12-04T04:53:54;4.80;99.90
41838;DHT22;27511;52.042;5.178;2023-12-04T04:56:21;4.90;99.90
41838;DHT22;27511;52.042;5.178;2023-12-04T04:58:46;5.00;99.90
41838;DHT22;27511;52.042;5.178;2023-12-04T05:01:12;5.00;99.90
41838;DHT22;27511;52.042;5.178;2023-12-04T05:03:37;5.00;99.90
41838;DHT22;27511;52.042;5.178;2023-12-04T05:06:03;4.90;99.90
41838;DHT22;27511;52.042;5.178;2023-12-04T05:08:29;4.90;99.90
41838;DHT22;27511;52.042;5.178;2023-12-04T05:10:54;4.90;99.90
41838;DHT22;27511;52.042;5.178;2023-12-04T05:13:20;4.90;99.90
41838;DHT22;27511;52.042;5.178;2023-12-04T05:15:45;4.90;99.90
41838;DHT22;27511;52.042;5.178;2023-12-04T05:18:11;5.00;99.90
41838;DHT22;27511;52.042;5.178;2023-12-04T05:20:37;4.90;99.90
41838;DHT22;27511;52.042;5.178;2023-12-04T05:23:02;4.90;99.90
41838;DHT22;27511;52.042;5.178;2023-12-04T05:25:28;4.90;99.90
41838;DHT22;27511;52.042;5.178;2023-12-04T05:27:53;4.90;99.90
41838;DHT22;27511;52.042;5.178;2023-12-04T05:30:19;4.90;99.90
41838;DHT22;27511;52.042;5.178;2023-12-04T05:32:44;5.00;99.90
41838;DHT22;27511;52.042;5.178;2023-12-04T05:35:10;4.90;99.90
41838;DHT22;27511;52.042;5.178;2023-12-04T05:37:35;4.90;99.90
41838;DHT22;27511;52.042;5.178;2023-12-04T05:40:01;4.90;99.90
41838;DHT22;27511;52.042;5.178;2023-12-04T05:42:27;4.90;99.90
41838;DHT22;27511;52.042;5.178;2023-12-04T05:44:52;4.90;99.90
41838;DHT22;27511;52.042;5.178;2023-12-04T05:47:21;4.90;99.90
41838;DHT22;27511;52.042;5.178;2023-12-04T05:49:46;4.90;99.90
41838;DHT22;27511;52.042;5.178;2023-12-04T05:52:12;5.00;99.90
41838;DHT22;27511;52.042;5.178;2023-12-04T05:54:37;5.00;99.90
41838;DHT22;27511;52.042;5.178;2023-12-04T05:57:03;4.90;99.90
41838;DHT22;27511;52.042;5.178;2023-12-04T05:59:29;4.70;99.90
41838;DHT22;27511;52.042;5.178;2023-12-04T06:01:54;4.70;99.90
41838;DHT22;27511;52.042;5.178;2023-12-04T06:04:20;4.80;99.90
41838;DHT22;27511;52.042;5.178;2023-12-04T06:06:45;4.70;99.90
41838;DHT22;27511;52.042;5.178;2023-12-04T06:09:11;4.70;99.90
41838;DHT22;27511;52.042;5.178;2023-12-04T06:11:36;4.90;99.90
41838;DHT22;27511;52.042;5.178;2023-12-04T06:14:02;4.90;99.90
41838;DHT22;27511;52.042;5.178;2023-12-04T06:16:27;4.90;99.90
41838;DHT22;27511;52.042;5.178;2023-12-04T06:18:53;4.90;99.90
41838;DHT22;27511;52.042;5.178;2023-12-04T06:21:18;5.00;99.90
41838;DHT22;27511;52.042;5.178;2023-12-04T06:23:44;4.90;99.90
41838;DHT22;27511;52.042;5.178;2023-12-04T06:26:11;4.90;99.90
41838;DHT22;27511;52.042;5.178;2023-12-04T06:28:38;4.60;99.90
41838;DHT22;27511;52.042;5.178;2023-12-04T06:31:03;4.60;99.90
41838;DHT22;27511;52.042;5.178;2023-12-04T06:33:29;4.60;99.90
41838;DHT22;27511;52.042;5.178;2023-12-04T06:35:55;4.60;99.90
41838;DHT22;27511;52.042;5.178;2023-12-04T06:38:24;4.70;99.90
41838;DHT22;27511;52.042;5.178;2023-12-04T06:40:50;4.70;99.90
41838;DHT22;27511;52.042;5.178;2023-12-04T06:43:16;4.80;99.90
41838;DHT22;27511;52.042;5.178;2023-12-04T06:45:44;4.70;99.90
41838;DHT22;27511;52.042;5.178;2023-12-04T06:48:13;4.70;99.90
41838;DHT22;27511;52.042;5.178;2023-12-04T06:50:38;4.70;99.90
41838;DHT22;27511;52.042;5.178;2023-12-04T06:53:05;4.60;99.90
41838;DHT22;27511;52.042;5.178;2023-12-04T06:55:31;4.50;99.90
41838;DHT22;27511;52.042;5.178;2023-12-04T06:57:57;4.60;99.90
41838;DHT22;27511;52.042;5.178;2023-12-04T07:00:22;4.50;99.90
41838;DHT22;27511;52.042;5.178;2023-12-04T07:02:48;4.60;99.90
41838;DHT22;27511;52.042;5.178;2023-12-04T07:05:14;4.70;99.90
41838;DHT22;27511;52.042;5.178;2023-12-04T07:07:40;4.80;99.90
41838;DHT22;27511;52.042;5.178;2023-12-04T07:10:06;4.70;99.90
41838;DHT22;27511;52.042;5.178;2023-12-04T07:12:32;4.70;99.90
41838;DHT22;27511;52.042;5.178;2023-12-04T07:14:57;4.70;99.90
41838;DHT22;27511;52.042;5.178;2023-12-04T07:17:23;4.80;99.90
41838;DHT22;27511;52.042;5.178;2023-12-04T07:19:48;5.00;99.90
41838;DHT22;27511;52.042;5.178;2023-12-04T07:22:14;5.00;99.90
41838;DHT22;27511;52.042;5.178;2023-12-04T07:24:40;4.90;99.90
41838;DHT22;27511;52.042;5.178;2023-12-04T07:27:06;5.00;99.90
41838;DHT22;27511;52.042;5.178;2023-12-04T07:29:31;4.90;99.90
41838;DHT22;27511;52.042;5.178;2023-12-04T07:31:57;4.90;99.90
41838;DHT22;27511;52.042;5.178;2023-12-04T07:34:24;4.90;99.90
41838;DHT22;27511;52.042;5.178;2023-12-04T07:36:49;4.90;99.90
41838;DHT22;27511;52.042;5.178;2023-12-04T07:39:16;4.90;99.90
41838;DHT22;27511;52.042;5.178;2023-12-04T07:41:41;4.90;99.90
41838;DHT22;27511;52.042;5.178;2023-12-04T07:44:08;5.00;99.90
41838;DHT22;27511;52.042;5.178;2023-12-04T07:46:33;5.10;99.90
41838;DHT22;27511;52.042;5.178;2023-12-04T07:48:59;5.10;99.90
41838;DHT22;27511;52.042;5.178;2023-12-04T07:51:25;5.10;99.90
41838;DHT22;27511;52.042;5.178;2023-12-04T07:53:50;5.00;99.90
41838;DHT22;27511;52.042;5.178;2023-12-04T07:56:16;4.80;99.90
41838;DHT22;27511;52.042;5.178;2023-12-04T07:58:42;4.90;99.90
41838;DHT22;27511;52.042;5.178;2023-12-04T08:01:07;4.70;99.90
41838;DHT22;27511;52.042;5.178;2023-12-04T08:03:33;4.70;99.90
41838;DHT22;27511;52.042;5.178;2023-12-04T08:05:59;4.70;99.90
41838;DHT22;27511;52.042;5.178;2023-12-04T08:08:25;4.70;99.90
41838;DHT22;27511;52.042;5.178;2023-12-04T08:10:50;4.70;99.90
41838;DHT22;27511;52.042;5.178;2023-12-04T08:13:16;4.70;99.90
41838;DHT22;27511;52.042;5.178;2023-12-04T08:15:42;4.80;99.90
41838;DHT22;27511;52.042;5.178;2023-12-04T08:18:08;4.80;99.90
41838;DHT22;27511;52.042;5.178;2023-12-04T08:20:34;4.80;99.90
41838;DHT22;27511;52.042;5.178;2023-12-04T08:23:00;4.80;99.90
41838;DHT22;27511;52.042;5.178;2023-12-04T08:25:25;4.90;99.90
41838;DHT22;27511;52.042;5.178;2023-12-04T08:27:51;5.00;99.90
41838;DHT22;27511;52.042;5.178;2023-12-04T08:30:17;4.90;99.90
41838;DHT22;27511;52.042;5.178;2023-12-04T08:32:43;4.90;99.90
41838;DHT22;27511;52.042;5.178;2023-12-04T08:35:09;4.90;99.90
41838;DHT22;27511;52.042;5.178;2023-12-04T08:37:34;4.90;99.90
41838;DHT22;27511;52.042;5.178;2023-12-04T08:40:00;5.00;99.90
41838;DHT22;27511;52.042;5.178;2023-12-04T08:42:25;5.00;99.90
41838;DHT22;27511;52.042;5.178;2023-12-04T08:44:51;5.10;99.90
41838;DHT22;27511;52.042;5.178;2023-12-04T08:47:17;5.10;99.90
41838;DHT22;27511;52.042;5.178;2023-12-04T08:49:43;5.10;99.90
41838;DHT22;27511;52.042;5.178;2023-12-04T08:52:09;5.10;99.90
41838;DHT22;27511;52.042;5.178;2023-12-04T08:54:34;5.10;99.90
41838;DHT22;27511;52.042;5.178;2023-12-04T08:57:00;5.10;99.90
41838;DHT22;27511;52.042;5.178;2023-12-04T08:59:26;5.40;99.90
41838;DHT22;27511;52.042;5.178;2023-12-04T09:01:51;5.20;99.90
41838;DHT22;27511;52.042;5.178;2023-12-04T09:04:17;5.20;99.90
41838;DHT22;27511;52.042;5.178;2023-12-04T09:06:43;5.30;99.90
41838;DHT22;27511;52.042;5.178;2023-12-04T09:09:08;5.30;99.90
41838;DHT22;27511;52.042;5.178;2023-12-04T09:11:34;5.40;99.90
41838;DHT22;27511;52.042;5.178;2023-12-04T09:13:59;5.40;99.90
41838;DHT22;27511;52.042;5.178;2023-12-04T09:16:25;5.40;99.90
41838;DHT22;27511;52.042;5.178;2023-12-04T09:18:50;5.40;99.90
41838;DHT22;27511;52.042;5.178;2023-12-04T09:21:17;5.40;99.90
41838;DHT22;27511;52.042;5.178;2023-12-04T09:23:42;5.40;99.90
41838;DHT22;27511;52.042;5.178;2023-12-04T09:26:08;5.40;99.90
41838;DHT22;27511;52.042;5.178;2023-12-04T09:28:35;5.40;99.90
41838;DHT22;27511;52.042;5.178;2023-12-04T09:31:00;5.40;99.90
41838;DHT22;27511;52.042;5.178;2023-12-04T09:33:26;5.40;99.90
41838;DHT22;27511;52.042;5.178;2023-12-04T09:35:52;5.40;99.90
41838;DHT22;27511;52.042;5.178;2023-12-04T09:38:18;5.40;99.90
41838;DHT22;27511;52.042;5.178;2023-12-04T09:40:43;5.30;99.90
41838;DHT22;27511;52.042;5.178;2023-12-04T09:43:09;5.40;99.90
41838;DHT22;27511;52.042;5.178;2023-12-04T09:45:36;5.30;99.90
41838;DHT22;27511;52.042;5.178;2023-12-04T09:48:01;5.30;99.90
41838;DHT22;27511;52.042;5.178;2023-12-04T09:50:27;5.40;99.90
41838;DHT22;27511;52.042;5.178;2023-12-04T09:52:53;5.40;99.90
41838;DHT22;27511;52.042;5.178;2023-12-04T09:55:20;5.40;99.90
41838;DHT22;27511;52.042;5.178;2023-12-04T09:57:45;5.50;99.90
41838;DHT22;27511;52.042;5.178;2023-12-04T10:00:13;5.60;99.90
41838;DHT22;27511;52.042;5.178;2023-12-04T10:02:40;5.60;99.90
41838;DHT22;27511;52.042;5.178;2023-12-04T10:05:06;5.70;99.90
41838;DHT22;27511;52.042;5.178;2023-12-04T10:07:32;5.70;99.90
41838;DHT22;27511;52.042;5.178;2023-12-04T10:09:58;5.70;99.90
41838;DHT22;27511;52.042;5.178;2023-12-04T10:12:24;5.80;99.90
41838;DHT22;27511;52.042;5.178;2023-12-04T10:15:06;5.70;99.90
41838;DHT22;27511;52.042;5.178;2023-12-04T10:17:36;5.60;99.90
41838;DHT22;27511;52.042;5.178;2023-12-04T10:20:15;5.60;99.90
41838;DHT22;27511;52.042;5.178;2023-12-04T10:22:57;5.60;99.90
41838;DHT22;27511;52.042;5.178;2023-12-04T10:25:25;5.70;99.90
41838;DHT22;27511;52.042;5.178;2023-12-04T10:27:52;5.70;99.90
41838;DHT22;27511;52.042;5.178;2023-12-04T10:30:26;5.80;99.90
41838;DHT22;27511;52.042;5.178;2023-12-04T10:32:56;5.90;99.90
41838;DHT22;27511;52.042;5.178;2023-12-04T10:35:26;5.90;99.90
41838;DHT22;27511;52.042;5.178;2023-12-04T10:37:54;5.90;99.90
41838;DHT22;27511;52.042;5.178;2023-12-04T10:40:27;5.80;99.90
41838;DHT22;27511;52.042;5.178;2023-12-04T10:45:34;5.90;99.90
41838;DHT22;27511;52.042;5.178;2023-12-04T10:48:00;5.90;99.90
41838;DHT22;27511;52.042;5.178;2023-12-04T10:50:27;6.00;99.90
41838;DHT22;27511;52.042;5.178;2023-12-04T10:52:54;6.00;99.90
41838;DHT22;27511;52.042;5.178;2023-12-04T10:55:21;5.90;99.90
41838;DHT22;27511;52.042;5.178;2023-12-04T10:57:47;6.00;99.90
41838;DHT22;27511;52.042;5.178;2023-12-04T11:00:17;6.20;99.90
41838;DHT22;27511;52.042;5.178;2023-12-04T11:02:45;6.10;99.90
41838;DHT22;27511;52.042;5.178;2023-12-04T11:05:16;6.10;99.90
41838;DHT22;27511;52.042;5.178;2023-12-04T11:07:58;6.10;99.90
41838;DHT22;27511;52.042;5.178;2023-12-04T11:10:26;6.10;99.90
41838;DHT22;27511;52.042;5.178;2023-12-04T11:13:04;6.00;99.90
41838;DHT22;27511;52.042;5.178;2023-12-04T11:15:35;6.20;99.90
41838;DHT22;27511;52.042;5.178;2023-12-04T11:18:00;6.10;99.90
41838;DHT22;27511;52.042;5.178;2023-12-04T11:20:29;6.10;99.90
41838;DHT22;27511;52.042;5.178;2023-12-04T11:22:56;6.10;99.90
41838;DHT22;27511;52.042;5.178;2023-12-04T11:25:23;6.30;99.90
41838;DHT22;27511;52.042;5.178;2023-12-04T11:27:51;6.20;99.90
41838;DHT22;27511;52.042;5.178;2023-12-04T11:30:17;6.30;99.90
41838;DHT22;27511;52.042;5.178;2023-12-04T11:32:44;6.30;99.90
41838;DHT22;27511;52.042;5.178;2023-12-04T11:35:15;6.30;99.90
41838;DHT22;27511;52.042;5.178;2023-12-04T11:37:44;6.10;99.90
41838;DHT22;27511;52.042;5.178;2023-12-04T11:40:15;6.20;99.90
41838;DHT22;27511;52.042;5.178;2023-12-04T11:42:41;6.20;99.90
41838;DHT22;27511;52.042;5.178;2023-12-04T11:45:07;6.20;99.90
41838;DHT22;27511;52.042;5.178;2023-12-04T11:47:56;6.20;99.90
41838;DHT22;27511;52.042;5.178;2023-12-04T11:50:24;6.20;99.90
41838;DHT22;27511;52.042;5.178;2023-12-04T11:52:50;6.10;99.90
41838;DHT22;27511;52.042;5.178;2023-12-04T11:55:17;6.10;99.90
41838;DHT22;27511;52.042;5.178;2023-12-04T11:57:44;6.10;99.90
41838;DHT22;27511;52.042;5.178;2023-12-04T12:00:20;6.10;99.90
41838;DHT22;27511;52.042;5.178;2023-12-04T12:03:01;6.10;99.90
41838;DHT22;27511;52.042;5.178;2023-12-04T12:05:28;6.20;99.90
41838;DHT22;27511;52.042;5.178;2023-12-04T12:07:54;6.10;99.90
41838;DHT22;27511;52.042;5.178;2023-12-04T12:10:19;6.20;99.90
41838;DHT22;27511;52.042;5.178;2023-12-04T12:12:46;6.30;99.90
41838;DHT22;27511;52.042;5.178;2023-12-04T12:15:12;6.40;99.90
41838;DHT22;27511;52.042;5.178;2023-12-04T12:17:40;6.40;99.90
41838;DHT22;27511;52.042;5.178;2023-12-04T12:20:08;6.40;99.90
41838;DHT22;27511;52.042;5.178;2023-12-04T12:22:35;6.20;99.90
41838;DHT22;27511;52.042;5.178;2023-12-04T12:25:04;6.30;99.90
41838;DHT22;27511;52.042;5.178;2023-12-04T12:27:30;6.30;99.90
41838;DHT22;27511;52.042;5.178;2023-12-04T12:29:56;6.30;99.90
41838;DHT22;27511;52.042;5.178;2023-12-04T12:32:21;6.40;99.90
41838;DHT22;27511;52.042;5.178;2023-12-04T12:34:47;6.40;99.90
41838;DHT22;27511;52.042;5.178;2023-12-04T12:37:13;6.40;99.90
41838;DHT22;27511;52.042;5.178;2023-12-04T12:39:39;6.40;99.90
41838;DHT22;27511;52.042;5.178;2023-12-04T12:42:05;6.50;99.90
41838;DHT22;27511;52.042;5.178;2023-12-04T12:44:40;6.40;99.90
41838;DHT22;27511;52.042;5.178;2023-12-04T12:47:09;6.40;99.90
41838;DHT22;27511;52.042;5.178;2023-12-04T12:49:34;6.40;99.90
41838;DHT22;27511;52.042;5.178;2023-12-04T12:52:04;6.40;99.90
41838;DHT22;27511;52.042;5.178;2023-12-04T12:54:30;6.40;99.90
41838;DHT22;27511;52.042;5.178;2023-12-04T12:56:58;6.40;99.90
41838;DHT22;27511;52.042;5.178;2023-12-04T12:59:25;6.50;99.90
41838;DHT22;27511;52.042;5.178;2023-12-04T13:01:50;6.50;99.90
41838;DHT22;27511;52.042;5.178;2023-12-04T13:04:17;6.40;99.90
41838;DHT22;27511;52.042;5.178;2023-12-04T13:06:43;6.40;99.90
41838;DHT22;27511;52.042;5.178;2023-12-04T13:09:08;6.30;99.90
41838;DHT22;27511;52.042;5.178;2023-12-04T13:11:34;6.30;99.90
41838;DHT22;27511;52.042;5.178;2023-12-04T13:14:00;6.40;99.90
41838;DHT22;27511;52.042;5.178;2023-12-04T13:16:26;6.40;99.90
41838;DHT22;27511;52.042;5.178;2023-12-04T13:18:52;6.40;99.90
41838;DHT22;27511;52.042;5.178;2023-12-04T13:21:17;6.30;99.90
41838;DHT22;27511;52.042;5.178;2023-12-04T13:23:42;6.30;99.90
41838;DHT22;27511;52.042;5.178;2023-12-04T13:26:08;6.20;99.90
41838;DHT22;27511;52.042;5.178;2023-12-04T13:28:36;6.20;99.90
41838;DHT22;27511;52.042;5.178;2023-12-04T13:31:04;6.30;99.90
41838;DHT22;27511;52.042;5.178;2023-12-04T13:33:30;6.30;99.90
41838;DHT22;27511;52.042;5.178;2023-12-04T13:35:55;6.20;99.90
41838;DHT22;27511;52.042;5.178;2023-12-04T13:38:21;6.20;99.90
41838;DHT22;27511;52.042;5.178;2023-12-04T13:40:47;6.30;99.90
41838;DHT22;27511;52.042;5.178;2023-12-04T13:43:26;6.20;99.90
41838;DHT22;27511;52.042;5.178;2023-12-04T13:46:10;6.10;99.90
41838;DHT22;27511;52.042;5.178;2023-12-04T13:48:35;6.20;99.90
41838;DHT22;27511;52.042;5.178;2023-12-04T13:51:10;6.30;99.90
41838;DHT22;27511;52.042;5.178;2023-12-04T13:53:36;6.30;99.90
41838;DHT22;27511;52.042;5.178;2023-12-04T13:56:05;6.30;99.90
41838;DHT22;27511;52.042;5.178;2023-12-04T13:58:49;6.30;99.90
41838;DHT22;27511;52.042;5.178;2023-12-04T14:01:24;6.20;99.90
41838;DHT22;27511;52.042;5.178;2023-12-04T14:03:54;6.20;99.90
41838;DHT22;27511;52.042;5.178;2023-12-04T14:06:19;6.10;99.90
41838;DHT22;27511;52.042;5.178;2023-12-04T14:08:45;6.20;99.90
41838;DHT22;27511;52.042;5.178;2023-12-04T14:11:11;6.20;99.90
41838;DHT22;27511;52.042;5.178;2023-12-04T14:13:37;6.30;99.90
41838;DHT22;27511;52.042;5.178;2023-12-04T14:16:05;6.30;99.90
41838;DHT22;27511;52.042;5.178;2023-12-04T14:18:30;6.40;99.90
41838;DHT22;27511;52.042;5.178;2023-12-04T14:20:56;6.40;99.90
41838;DHT22;27511;52.042;5.178;2023-12-04T14:23:22;6.30;99.90
41838;DHT22;27511;52.042;5.178;2023-12-04T14:25:48;6.30;99.90
41838;DHT22;27511;52.042;5.178;2023-12-04T14:28:13;6.30;99.90
41838;DHT22;27511;52.042;5.178;2023-12-04T14:30:39;6.30;99.90
41838;DHT22;27511;52.042;5.178;2023-12-04T14:33:06;6.40;99.90
41838;DHT22;27511;52.042;5.178;2023-12-04T14:35:31;6.30;99.90
41838;DHT22;27511;52.042;5.178;2023-12-04T14:37:57;6.20;99.90
41838;DHT22;27511;52.042;5.178;2023-12-04T14:40:22;6.20;99.90
41838;DHT22;27511;52.042;5.178;2023-12-04T14:42:48;6.20;99.90
41838;DHT22;27511;52.042;5.178;2023-12-04T14:45:14;6.30;99.90
41838;DHT22;27511;52.042;5.178;2023-12-04T14:47:42;6.40;99.90
41838;DHT22;27511;52.042;5.178;2023-12-04T14:50:08;6.30;99.90
41838;DHT22;27511;52.042;5.178;2023-12-04T14:52:35;6.20;99.90
41838;DHT22;27511;52.042;5.178;2023-12-04T14:55:04;6.30;99.90
41838;DHT22;27511;52.042;5.178;2023-12-04T14:57:36;6.20;99.90
41838;DHT22;27511;52.042;5.178;2023-12-04T15:00:05;6.10;99.90
41838;DHT22;27511;52.042;5.178;2023-12-04T15:02:48;6.10;99.90
41838;DHT22;27511;52.042;5.178;2023-12-04T15:05:34;6.20;99.90
41838;DHT22;27511;52.042;5.178;2023-12-04T15:08:18;6.20;99.90
41838;DHT22;27511;52.042;5.178;2023-12-04T15:11:04;6.10;99.90
41838;DHT22;27511;52.042;5.178;2023-12-04T15:13:38;6.10;99.90
41838;DHT22;27511;52.042;5.178;2023-12-04T15:16:15;6.20;99.90
41838;DHT22;27511;52.042;5.178;2023-12-04T15:18:43;6.30;99.90
41838;DHT22;27511;52.042;5.178;2023-12-04T15:21:29;6.30;99.90
41838;DHT22;27511;52.042;5.178;2023-12-04T15:23:55;6.20;99.90
41838;DHT22;27511;52.042;5.178;2023-12-04T15:26:20;6.20;99.90
41838;DHT22;27511;52.042;5.178;2023-12-04T15:28:46;6.20;99.90
41838;DHT22;27511;52.042;5.178;2023-12-04T15:31:12;6.20;99.90
41838;DHT22;27511;52.042;5.178;2023-12-04T15:33:37;6.20;99.90
41838;DHT22;27511;52.042;5.178;2023-12-04T15:36:03;6.10;99.90
41838;DHT22;27511;52.042;5.178;2023-12-04T15:38:29;6.10;99.90
41838;DHT22;27511;52.042;5.178;2023-12-04T15:40:55;6.10;99.90
41838;DHT22;27511;52.042;5.178;2023-12-04T15:43:21;6.10;99.90
41838;DHT22;27511;52.042;5.178;2023-12-04T15:45:47;6.10;99.90